createdAt,value
2018-03-20T00:01:59.505Z,97.40
2018-03-20T00:04:26.964Z,96.60
2018-03-20T00:06:54.408Z,97.00
2018-03-20T00:09:21.863Z,97.00
2018-03-20T00:11:49.333Z,97.20
2018-03-20T00:14:16.779Z,97.50
2018-03-20T00:16:44.219Z,97.50
2018-03-20T00:19:11.680Z,97.50
2018-03-20T00:21:39.137Z,96.20
2018-03-20T00:24:06.574Z,96.20
2018-03-20T00:26:34.016Z,95.90
2018-03-20T00:29:01.474Z,98.00
2018-03-20T00:31:28.917Z,98.70
2018-03-20T00:33:56.347Z,96.90
2018-03-20T00:36:23.804Z,98.20
2018-03-20T00:38:51.365Z,97.60
2018-03-20T00:41:18.808Z,98.50
2018-03-20T00:43:46.256Z,98.90
2018-03-20T00:46:13.693Z,98.80
2018-03-20T00:48:41.143Z,98.40
2018-03-20T00:51:08.579Z,98.60
2018-03-20T00:53:36.036Z,97.40
2018-03-20T00:56:03.496Z,98.30
2018-03-20T00:58:30.954Z,98.30
2018-03-20T01:00:58.456Z,98.20
2018-03-20T01:03:25.900Z,97.90
2018-03-20T01:05:53.343Z,97.70
2018-03-20T01:08:20.782Z,97.50
2018-03-20T01:10:48.231Z,97.20
2018-03-20T01:13:15.672Z,96.70
2018-03-20T01:15:43.123Z,96.40
2018-03-20T01:18:10.555Z,96.20
2018-03-20T01:20:38.751Z,95.40
2018-03-20T01:23:06.211Z,95.30
2018-03-20T01:25:33.672Z,95.20
2018-03-20T01:28:01.121Z,94.80
2018-03-20T01:30:28.554Z,94.40
2018-03-20T01:32:55.988Z,94.50
2018-03-20T01:35:23.431Z,94.60
2018-03-20T01:37:50.881Z,94.60
2018-03-20T01:40:18.336Z,94.60
2018-03-20T01:42:45.785Z,94.70
2018-03-20T01:45:14.832Z,95.00
2018-03-20T01:47:42.283Z,94.90
2018-03-20T01:50:09.722Z,94.70
2018-03-20T01:52:37.168Z,94.90
2018-03-20T01:55:04.617Z,94.80
2018-03-20T01:57:32.079Z,94.40
2018-03-20T01:59:59.532Z,94.10
2018-03-20T02:02:26.974Z,94.00
2018-03-20T02:04:54.419Z,93.80
2018-03-20T02:07:21.876Z,93.70
2018-03-20T02:09:49.318Z,93.30
2018-03-20T02:12:17.536Z,92.90
2018-03-20T02:14:44.982Z,92.90
2018-03-20T02:17:12.418Z,92.60
2018-03-20T02:19:39.866Z,92.40
2018-03-20T02:22:07.316Z,92.10
2018-03-20T02:24:35.516Z,91.70
2018-03-20T02:27:02.957Z,91.70
2018-03-20T02:29:30.395Z,91.60
2018-03-20T02:31:57.851Z,91.60
2018-03-20T02:34:25.296Z,91.40
2018-03-20T02:36:52.731Z,91.10
2018-03-20T02:39:20.180Z,91.00
2018-03-20T02:41:47.640Z,90.90
2018-03-20T02:44:15.089Z,90.80
2018-03-20T02:46:42.528Z,90.80
2018-03-20T02:49:09.967Z,90.70
2018-03-20T02:51:37.397Z,90.30
2018-03-20T02:54:04.853Z,90.10
2018-03-20T02:56:32.295Z,90.10
2018-03-20T02:58:59.731Z,89.50
2018-03-20T03:01:27.185Z,90.00
2018-03-20T03:03:54.623Z,89.00
2018-03-20T03:06:22.063Z,87.90
2018-03-20T03:08:50.300Z,87.30
2018-03-20T03:11:17.739Z,87.20
2018-03-20T03:13:45.188Z,86.80
2018-03-20T03:16:12.647Z,86.00
2018-03-20T03:18:40.078Z,85.60
2018-03-20T03:21:07.515Z,85.10
2018-03-20T03:23:34.956Z,84.40
2018-03-20T03:26:02.379Z,83.90
2018-03-20T03:28:29.837Z,83.60
2018-03-20T03:30:57.282Z,83.40
2018-03-20T03:33:24.826Z,83.00
2018-03-20T03:35:52.263Z,82.30
2018-03-20T03:38:19.716Z,81.40
2018-03-20T03:40:47.173Z,81.10
2018-03-20T03:43:14.657Z,80.90
2018-03-20T03:45:42.082Z,80.50
2018-03-20T03:48:09.526Z,80.10
2018-03-20T03:50:36.994Z,79.40
2018-03-20T03:53:04.440Z,79.20
2018-03-20T03:55:31.946Z,79.00
2018-03-20T03:57:59.391Z,79.10
2018-03-20T04:00:26.841Z,79.30
2018-03-20T04:02:54.280Z,79.50
2018-03-20T04:05:21.716Z,79.50
2018-03-20T04:07:49.163Z,80.10
2018-03-20T04:10:16.612Z,80.20
2018-03-20T04:12:44.047Z,80.20
2018-03-20T04:15:11.508Z,80.50
2018-03-20T04:17:38.955Z,80.40
2018-03-20T04:20:06.384Z,80.20
2018-03-20T04:22:34.606Z,79.70
2018-03-20T04:25:02.052Z,79.70
2018-03-20T04:27:29.496Z,79.10
2018-03-20T04:29:56.961Z,77.30
2018-03-20T04:32:24.387Z,77.80
2018-03-20T04:34:51.856Z,77.30
2018-03-20T04:37:19.304Z,78.00
2018-03-20T04:39:46.743Z,78.10
2018-03-20T04:42:14.203Z,78.30
2018-03-20T04:44:41.636Z,78.60
2018-03-20T04:47:09.077Z,78.60
2018-03-20T04:49:36.509Z,78.20
2018-03-20T04:52:03.952Z,78.10
2018-03-20T04:54:32.152Z,76.10
2018-03-20T04:56:59.620Z,75.90
2018-03-20T04:59:27.055Z,77.10
2018-03-20T05:01:54.513Z,77.10
2018-03-20T05:04:21.954Z,77.00
2018-03-20T05:06:49.392Z,76.80
2018-03-20T05:09:16.841Z,77.00
2018-03-20T05:11:44.283Z,76.90
2018-03-20T05:14:11.732Z,76.20
2018-03-20T05:16:39.180Z,77.20
2018-03-20T05:19:12.215Z,77.30
2018-03-20T05:21:42.488Z,77.90
2018-03-20T05:24:09.931Z,77.80
2018-03-20T05:26:37.377Z,76.40
2018-03-20T05:29:04.840Z,76.90
2018-03-20T05:31:32.330Z,76.50
2018-03-20T05:33:59.755Z,76.20
2018-03-20T05:36:27.200Z,75.50
2018-03-20T05:38:54.627Z,74.70
2018-03-20T05:41:22.081Z,74.20
2018-03-20T05:43:49.581Z,75.30
2018-03-20T05:49:48.629Z,74.50
2018-03-20T05:52:16.079Z,74.30
2018-03-20T05:54:43.501Z,73.80
2018-03-20T05:57:11.719Z,73.90
2018-03-20T05:59:39.172Z,73.70
2018-03-20T06:02:06.629Z,73.40
2018-03-20T06:04:34.071Z,73.80
2018-03-20T06:07:01.527Z,73.90
2018-03-20T06:09:28.987Z,73.90
2018-03-20T06:11:56.447Z,73.30
2018-03-20T06:14:23.900Z,73.50
2018-03-20T06:16:51.332Z,73.50
2018-03-20T06:19:18.799Z,72.90
2018-03-20T06:21:46.995Z,72.60
2018-03-20T06:24:14.433Z,72.50
2018-03-20T06:26:41.896Z,72.10
2018-03-20T06:29:09.599Z,71.70
2018-03-20T06:31:37.066Z,71.10
2018-03-20T06:34:04.514Z,70.60
2018-03-20T06:36:31.972Z,71.20
2018-03-20T06:38:59.413Z,71.50
2018-03-20T06:41:26.875Z,72.00
2018-03-20T06:43:54.304Z,71.50
2018-03-20T06:46:21.755Z,71.10
2018-03-20T06:48:49.192Z,72.20
2018-03-20T06:51:16.667Z,72.50
2018-03-20T06:53:44.099Z,72.10
2018-03-20T06:56:11.548Z,71.30
2018-03-20T06:58:38.977Z,72.00
2018-03-20T07:01:06.452Z,70.60
2018-03-20T07:03:33.891Z,71.60
2018-03-20T07:06:01.325Z,71.20
2018-03-20T07:08:28.784Z,72.00
2018-03-20T07:10:56.232Z,71.80
2018-03-20T07:13:23.810Z,73.10
2018-03-20T07:15:51.239Z,73.10
2018-03-20T07:18:18.703Z,73.60
2018-03-20T07:20:46.156Z,74.10
2018-03-20T07:23:13.596Z,74.40
2018-03-20T07:25:41.060Z,76.00
2018-03-20T07:28:08.503Z,76.40
2018-03-20T07:30:35.946Z,76.30
2018-03-20T07:33:03.400Z,75.50
2018-03-20T07:35:30.841Z,74.30
2018-03-20T07:37:58.296Z,74.20
2018-03-20T07:40:25.760Z,74.90
2018-03-20T07:42:53.223Z,75.40
2018-03-20T07:45:20.667Z,74.70
2018-03-20T07:47:48.118Z,74.30
2018-03-20T07:50:15.574Z,73.20
2018-03-20T07:52:43.010Z,72.40
2018-03-20T07:55:10.472Z,71.50
2018-03-20T07:57:38.037Z,71.10
2018-03-20T08:00:05.512Z,70.80
2018-03-20T08:02:32.952Z,70.50
2018-03-20T08:05:00.408Z,68.90
2018-03-20T08:07:27.851Z,68.20
2018-03-20T08:09:55.312Z,67.00
2018-03-20T08:12:22.769Z,66.00
2018-03-20T08:14:50.228Z,66.30
2018-03-20T08:17:17.683Z,66.30
2018-03-20T08:19:45.225Z,65.60
2018-03-20T08:22:12.686Z,67.00
2018-03-20T08:24:40.200Z,67.50
2018-03-20T08:27:07.640Z,66.20
2018-03-20T08:29:35.075Z,65.40
2018-03-20T08:32:02.544Z,64.10
2018-03-20T08:34:29.993Z,63.10
2018-03-20T08:36:57.457Z,62.00
2018-03-20T08:39:24.891Z,60.50
2018-03-20T08:41:52.356Z,60.20
2018-03-20T08:44:19.832Z,60.40
2018-03-20T08:46:47.257Z,57.80
2018-03-20T08:49:14.717Z,56.70
2018-03-20T08:51:42.173Z,54.80
2018-03-20T08:54:09.638Z,56.00
2018-03-20T08:56:37.092Z,56.50
2018-03-20T08:59:04.553Z,55.70
2018-03-20T09:01:31.988Z,54.10
2018-03-20T09:03:59.458Z,53.50
2018-03-20T09:06:26.946Z,51.60
2018-03-20T09:08:54.384Z,50.50
2018-03-20T09:11:21.856Z,49.70
2018-03-20T09:13:49.299Z,48.20
2018-03-20T09:16:16.801Z,48.00
2018-03-20T09:18:44.268Z,48.10
2018-03-20T09:21:11.704Z,47.40
2018-03-20T09:23:39.179Z,46.80
2018-03-20T09:26:06.836Z,45.70
2018-03-20T09:28:34.332Z,45.40
2018-03-20T09:31:01.784Z,46.60
2018-03-20T09:33:29.251Z,43.40
2018-03-20T09:35:57.472Z,45.30
2018-03-20T09:38:24.941Z,45.20
2018-03-20T09:40:52.388Z,42.90
2018-03-20T09:43:19.875Z,41.20
2018-03-20T09:45:47.323Z,40.00
2018-03-20T09:48:14.844Z,39.10
2018-03-20T09:50:42.316Z,39.80
2018-03-20T09:53:09.773Z,39.40
2018-03-20T09:55:37.228Z,39.50
2018-03-20T09:58:04.692Z,43.60
2018-03-20T10:00:32.128Z,52.20
2018-03-20T10:02:59.606Z,61.20
2018-03-20T10:05:27.054Z,66.50
2018-03-20T10:07:54.526Z,71.50
2018-03-20T10:10:21.977Z,72.90
2018-03-20T10:12:49.496Z,65.10
2018-03-20T10:15:16.955Z,68.80
2018-03-20T10:17:45.338Z,65.10
2018-03-20T10:20:12.936Z,65.10
2018-03-20T10:22:40.314Z,51.70
2018-03-20T10:25:07.933Z,55.90
2018-03-20T10:27:35.403Z,54.60
2018-03-20T10:30:02.868Z,51.90
2018-03-20T10:32:30.336Z,49.70
2018-03-20T10:34:57.787Z,50.50
2018-03-20T10:37:25.253Z,49.20
2018-03-20T10:39:52.722Z,46.50
2018-03-20T10:42:20.184Z,42.80
2018-03-20T10:44:47.673Z,40.60
2018-03-20T10:47:15.182Z,41.80
2018-03-20T10:49:42.632Z,40.20
2018-03-20T10:52:11.845Z,42.30
2018-03-20T10:54:39.307Z,43.20
2018-03-20T10:57:06.796Z,41.50
2018-03-20T10:59:34.204Z,39.70
2018-03-20T11:02:07.357Z,39.70
2018-03-20T11:04:34.848Z,31.30
2018-03-20T11:07:02.299Z,29.60
2018-03-20T11:09:29.787Z,30.40
2018-03-20T11:11:57.276Z,30.70
2018-03-20T11:14:24.852Z,30.70
2018-03-20T11:16:52.318Z,32.70
2018-03-20T11:19:19.785Z,32.90
2018-03-20T11:21:47.266Z,31.30
2018-03-20T11:24:14.733Z,31.60
2018-03-20T11:26:42.226Z,31.30
2018-03-20T11:29:09.672Z,33.00
2018-03-20T11:31:37.927Z,30.60
2018-03-20T11:34:05.366Z,30.50
2018-03-20T11:36:33.708Z,30.00
2018-03-20T11:39:01.164Z,30.90
2018-03-20T11:41:28.642Z,31.20
2018-03-20T11:43:56.158Z,31.50
2018-03-20T11:46:23.633Z,30.80
2018-03-20T11:48:51.185Z,28.20
2018-03-20T11:51:18.604Z,28.70
2018-03-20T11:53:46.063Z,30.80
2018-03-20T11:56:13.567Z,29.70
2018-03-20T11:58:41.878Z,29.30
2018-03-20T12:01:09.346Z,29.30
2018-03-20T12:03:36.817Z,29.60
2018-03-20T12:06:04.327Z,29.80
2018-03-20T12:08:43.503Z,29.50
2018-03-20T12:11:11.001Z,28.90
2018-03-20T12:13:39.242Z,24.20
2018-03-20T12:16:06.687Z,24.10
2018-03-20T12:18:34.148Z,23.20
2018-03-20T12:21:01.579Z,21.20
2018-03-20T12:23:29.080Z,19.60
2018-03-20T12:25:56.501Z,20.60
2018-03-20T12:28:24.035Z,19.10
2018-03-20T12:30:51.478Z,19.60
2018-03-20T12:33:18.955Z,20.50
2018-03-20T12:35:46.403Z,21.10
2018-03-20T12:38:13.855Z,20.60
2018-03-20T12:40:41.320Z,21.10
2018-03-20T12:43:08.978Z,21.10
2018-03-20T12:45:36.428Z,20.30
2018-03-20T12:48:03.876Z,20.00
2018-03-20T12:50:31.368Z,18.90
2018-03-20T12:52:58.800Z,17.90
2018-03-20T12:55:26.246Z,18.80
2018-03-20T12:57:54.566Z,16.70
2018-03-20T13:00:21.992Z,16.60
2018-03-20T13:02:49.435Z,15.90
2018-03-20T13:05:17.016Z,14.40
2018-03-20T13:07:44.428Z,14.20
2018-03-20T13:10:11.885Z,13.70
2018-03-20T13:12:39.343Z,14.70
2018-03-20T13:15:06.795Z,16.00
2018-03-20T13:17:34.233Z,15.60
2018-03-20T13:20:01.706Z,16.20
2018-03-20T13:22:29.162Z,17.30
2018-03-20T13:24:56.658Z,17.00
2018-03-20T13:27:24.124Z,16.30
2018-03-20T13:29:51.597Z,15.20
2018-03-20T13:32:19.066Z,15.50
2018-03-20T13:34:46.508Z,15.00
2018-03-20T13:37:13.960Z,13.00
2018-03-20T13:39:41.401Z,13.80
2018-03-20T13:42:09.636Z,15.50
2018-03-20T13:44:37.084Z,15.40
2018-03-20T13:47:04.557Z,15.70
2018-03-20T13:49:32.012Z,16.90
2018-03-20T13:51:59.484Z,17.30
2018-03-20T13:54:26.953Z,17.20
2018-03-20T13:56:54.408Z,16.60
2018-03-20T13:59:22.617Z,15.90
2018-03-20T14:01:50.091Z,15.90
2018-03-20T14:04:17.627Z,15.60
2018-03-20T14:06:45.101Z,14.90
2018-03-20T14:09:12.578Z,15.50
2018-03-20T14:11:40.251Z,15.80
2018-03-20T14:14:07.712Z,15.60
2018-03-20T14:16:35.188Z,15.50
2018-03-20T14:19:02.632Z,14.80
2018-03-20T14:21:31.642Z,15.50
2018-03-20T14:23:59.072Z,15.50
2018-03-20T14:26:26.550Z,15.50
2018-03-20T14:28:54.056Z,15.70
2018-03-20T14:31:21.587Z,16.90
2018-03-20T14:33:48.992Z,17.60
2018-03-20T14:36:16.461Z,18.30
2018-03-20T14:38:43.940Z,18.60
2018-03-20T14:41:11.404Z,18.50
2018-03-20T14:43:39.662Z,19.40
2018-03-20T14:46:07.157Z,19.30
2018-03-20T14:48:34.609Z,20.40
2018-03-20T14:51:02.063Z,21.00
2018-03-20T14:53:30.376Z,20.80
2018-03-20T14:55:58.253Z,20.70
2018-03-20T14:58:25.722Z,19.80
2018-03-20T15:00:53.191Z,20.50
2018-03-20T15:03:21.818Z,20.60
2018-03-20T15:05:49.296Z,19.50
2018-03-20T15:08:16.768Z,20.40
2018-03-20T15:10:44.242Z,20.30
2018-03-20T15:13:11.700Z,19.80
2018-03-20T15:15:39.191Z,19.40
2018-03-20T15:18:06.784Z,19.80
2018-03-20T15:20:34.260Z,19.80
2018-03-20T15:23:01.727Z,20.00
2018-03-20T15:25:29.183Z,20.80
2018-03-20T15:27:56.636Z,22.60
2018-03-20T15:30:24.093Z,23.00
2018-03-20T15:32:51.533Z,23.10
2018-03-20T15:35:19.002Z,23.30
2018-03-20T15:37:46.553Z,23.40
2018-03-20T15:40:18.671Z,23.70
2018-03-20T15:42:46.192Z,24.30
2018-03-20T15:45:13.783Z,24.40
2018-03-20T15:47:41.261Z,25.20
2018-03-20T15:50:08.745Z,25.40
2018-03-20T15:52:36.229Z,25.70
2018-03-20T15:55:04.350Z,25.80
2018-03-20T15:57:32.619Z,26.50
2018-03-20T16:00:00.332Z,26.50
2018-03-20T16:02:27.760Z,26.70
2018-03-20T16:04:55.231Z,26.60
2018-03-20T16:07:22.724Z,26.80
2018-03-20T16:09:50.191Z,27.10
2018-03-20T16:12:17.642Z,27.40
2018-03-20T16:14:45.096Z,28.00
2018-03-20T16:17:12.552Z,28.50
2018-03-20T16:19:40.047Z,28.80
2018-03-20T16:22:07.486Z,28.70
2018-03-20T16:24:38.288Z,29.10
2018-03-20T16:27:05.817Z,29.00
2018-03-20T16:29:33.302Z,29.30
2018-03-20T16:32:00.761Z,30.00
2018-03-20T16:34:28.243Z,30.10
2018-03-20T16:36:56.026Z,30.40
2018-03-20T16:39:23.978Z,30.20
2018-03-20T16:41:52.294Z,32.20
2018-03-20T16:44:19.756Z,32.20
2018-03-20T16:46:49.076Z,30.80
2018-03-20T16:49:17.045Z,30.60
2018-03-20T16:51:44.555Z,29.80
2018-03-20T16:54:12.006Z,30.20
2018-03-20T16:56:39.452Z,30.30
2018-03-20T16:59:06.979Z,29.70
2018-03-20T17:01:34.455Z,30.70
2018-03-20T17:04:01.890Z,30.50
2018-03-20T17:06:29.356Z,30.40
2018-03-20T17:08:56.816Z,31.80
2018-03-20T17:11:24.296Z,31.90
2018-03-20T17:13:52.569Z,30.40
2018-03-20T17:16:20.026Z,30.30
2018-03-20T17:18:47.899Z,30.90
2018-03-20T17:21:16.297Z,29.60
2018-03-20T17:23:43.828Z,29.60
2018-03-20T17:26:11.340Z,29.80
2018-03-20T17:28:38.799Z,30.00
2018-03-20T17:31:06.420Z,30.30
2018-03-20T17:33:33.798Z,29.90
2018-03-20T17:36:01.264Z,29.10
2018-03-20T17:38:28.718Z,29.40
2018-03-20T17:40:56.930Z,29.40
2018-03-20T17:43:24.375Z,29.30
2018-03-20T17:45:51.815Z,29.60
2018-03-20T17:48:19.276Z,29.80
2018-03-20T17:50:46.749Z,29.20
2018-03-20T17:53:14.481Z,29.20
2018-03-20T17:55:42.109Z,29.50
2018-03-20T17:58:09.539Z,29.20
2018-03-20T18:00:37.008Z,28.30
2018-03-20T18:03:04.463Z,27.80
2018-03-20T18:05:31.908Z,27.70
2018-03-20T18:07:59.376Z,27.70
2018-03-20T18:10:26.827Z,27.90
2018-03-20T18:12:54.308Z,28.10
2018-03-20T18:15:21.819Z,28.00
2018-03-20T18:17:49.300Z,27.90
2018-03-20T18:20:16.774Z,28.10
2018-03-20T18:22:44.559Z,28.40
2018-03-20T18:25:11.986Z,28.50
2018-03-20T18:27:39.445Z,29.30
2018-03-20T18:30:07.026Z,30.10
2018-03-20T18:32:34.684Z,31.40
2018-03-20T18:35:02.250Z,33.10
2018-03-20T18:37:29.901Z,33.70
2018-03-20T18:39:57.366Z,34.90
2018-03-20T18:42:25.548Z,37.60
2018-03-20T18:44:53.045Z,37.50
2018-03-20T18:47:20.494Z,38.40
2018-03-20T18:49:48.039Z,39.50
2018-03-20T18:52:15.460Z,41.00
2018-03-20T18:54:42.924Z,42.60
2018-03-20T18:57:10.356Z,43.60
2018-03-20T18:59:38.257Z,44.60
2018-03-20T19:02:05.708Z,46.20
2018-03-20T19:04:33.169Z,46.60
2018-03-20T19:07:00.598Z,47.70
2018-03-20T19:09:28.055Z,48.10
2018-03-20T19:11:55.522Z,48.60
2018-03-20T19:14:22.976Z,50.10
2018-03-20T19:16:50.421Z,51.20
2018-03-20T19:19:17.925Z,53.40
2018-03-20T19:21:52.660Z,55.40
2018-03-20T19:24:20.120Z,57.70
2018-03-20T19:26:47.588Z,58.00
2018-03-20T19:29:15.033Z,58.50
2018-03-20T19:31:42.520Z,58.90
2018-03-20T19:34:09.953Z,58.40
2018-03-20T19:36:37.591Z,58.40
2018-03-20T19:39:05.825Z,63.00
2018-03-20T19:41:33.283Z,62.90
2018-03-20T19:44:00.786Z,64.90
2018-03-20T19:46:28.277Z,67.80
2018-03-20T19:48:55.771Z,70.00
2018-03-20T19:51:23.597Z,70.70
2018-03-20T19:53:51.163Z,71.10
2018-03-20T19:56:18.547Z,72.00
2018-03-20T19:58:46.039Z,71.90
2018-03-20T20:01:14.325Z,73.40
2018-03-20T20:03:42.564Z,75.00
2018-03-20T20:06:10.093Z,74.20
2018-03-20T20:08:37.600Z,74.40
2018-03-20T20:11:05.067Z,75.20
2018-03-20T20:13:32.520Z,76.30
2018-03-20T20:15:59.956Z,76.90
2018-03-20T20:18:27.436Z,76.50
2018-03-20T20:20:54.880Z,76.00
2018-03-20T20:23:22.336Z,76.30
2018-03-20T20:25:49.812Z,76.80
2018-03-20T20:28:17.409Z,77.30
2018-03-20T20:30:44.860Z,77.60
2018-03-20T20:33:13.224Z,78.20
2018-03-20T20:35:40.680Z,79.00
2018-03-20T20:38:08.151Z,79.40
2018-03-20T20:40:35.612Z,79.60
2018-03-20T20:43:03.089Z,81.40
2018-03-20T20:45:30.557Z,82.90
2018-03-20T20:47:58.015Z,84.00
2018-03-20T20:50:25.471Z,84.30
2018-03-20T20:52:52.966Z,84.10
2018-03-20T20:55:20.428Z,85.10
2018-03-20T20:57:47.856Z,84.60
2018-03-20T21:00:15.316Z,84.30
2018-03-20T21:02:42.782Z,84.70
2018-03-20T21:05:10.246Z,85.00
2018-03-20T21:07:37.717Z,85.60
2018-03-20T21:10:05.164Z,85.70
2018-03-20T21:12:32.657Z,85.40
2018-03-20T21:15:00.128Z,84.90
2018-03-20T21:17:27.593Z,85.50
2018-03-20T21:19:55.074Z,85.40
2018-03-20T21:22:22.517Z,85.30
2018-03-20T21:24:49.956Z,85.70
2018-03-20T21:27:17.961Z,86.10
2018-03-20T21:29:45.408Z,86.90
2018-03-20T21:32:12.871Z,88.40
2018-03-20T21:34:40.350Z,90.40
2018-03-20T21:37:07.796Z,91.50
2018-03-20T21:39:35.256Z,91.80
2018-03-20T21:42:02.713Z,92.60
2018-03-20T21:44:30.172Z,92.90
2018-03-20T21:46:57.686Z,93.10
2018-03-20T21:49:25.171Z,93.00
2018-03-20T21:51:52.600Z,93.00
2018-03-20T21:54:20.077Z,92.90
2018-03-20T21:56:47.692Z,92.70
2018-03-20T21:59:15.149Z,92.30
2018-03-20T22:01:42.607Z,92.30
2018-03-20T22:04:10.055Z,92.40
2018-03-20T22:06:38.309Z,92.00
2018-03-20T22:09:05.772Z,92.00
2018-03-20T22:11:33.209Z,91.40
2018-03-20T22:14:00.668Z,91.20
2018-03-20T22:16:28.184Z,90.90
2018-03-20T22:18:59.171Z,90.80
2018-03-20T22:21:27.401Z,90.80
2018-03-20T22:23:54.869Z,90.70
2018-03-20T22:26:22.347Z,90.50
2018-03-20T22:28:49.805Z,90.40
2018-03-20T22:31:17.295Z,90.50
2018-03-20T22:33:44.744Z,90.20
2018-03-20T22:36:12.203Z,90.20
2018-03-20T22:38:39.715Z,90.20
2018-03-20T22:41:07.144Z,90.20
2018-03-20T22:43:34.668Z,90.20
2018-03-20T22:46:02.106Z,90.20
2018-03-20T22:48:29.548Z,90.10
2018-03-20T22:50:56.987Z,89.70
2018-03-20T22:53:24.445Z,89.90
2018-03-20T22:55:51.923Z,89.70
2018-03-20T22:58:19.344Z,89.00
2018-03-20T23:00:47.547Z,88.20
2018-03-20T23:03:15.194Z,88.10
2018-03-20T23:05:42.636Z,89.00
2018-03-20T23:08:10.068Z,89.60
2018-03-20T23:10:37.511Z,90.00
2018-03-20T23:13:04.968Z,90.00
2018-03-20T23:15:32.409Z,89.40
2018-03-20T23:17:59.874Z,89.80
2018-03-20T23:20:27.324Z,89.90
2018-03-20T23:22:54.780Z,89.60
2018-03-20T23:25:22.319Z,89.40
2018-03-20T23:27:49.765Z,89.70
2018-03-20T23:30:17.212Z,90.00
2018-03-20T23:32:44.657Z,89.90
2018-03-20T23:35:12.115Z,90.50
2018-03-20T23:37:39.572Z,90.70
2018-03-20T23:40:07.013Z,90.40
2018-03-20T23:42:34.456Z,90.50
2018-03-20T23:45:02.128Z,90.40
2018-03-20T23:47:30.999Z,90.00
2018-03-20T23:49:58.449Z,90.20
2018-03-20T23:52:25.897Z,90.30
2018-03-20T23:54:53.343Z,90.30
2018-03-20T23:57:20.786Z,90.40
2018-03-20T23:59:48.233Z,90.40
